Portada
METAR-TAF:

METAR-TAF

Aeropuertos :

Aeropuerto de Menorca

Menorca, España

latitud: 39-52N, longitud: 004-14E, altitud: 87 m

Observación

El informe se hizo hace 12 minutos, a las 01:30 UTC
Viento 5 kt del suroeste
Temperatura 16°C
Humedad 100%
Presión 1017 hPa
Visibilidad: 1100 m
neblina

METAR: LEMH 230130Z AUTO 22005KT 1800 1100S BR BKN002/// 16/16 Q1017

Hora: 03:42 (01:42 UTC)

Pronóstico

El informe se hizo hace 5 horas y 42 minutos, a las 20:00 UTC
Pronóstico válido del 22 a las 21 UTC al 23 a las 21 UTC
Viento 6 kt del suroeste
Visibilidad 10 km o más
Escasas nubes a una altura de 2000 ft
Probabilidad 30% :
Temporalmente
del 23 a las 00 UTC al 23 a las 07 UTC
Visibilidad: 3000 m
Nubes dispersas a una altura de 800 ft
neblina
Evolucionando progresivamente
del 23 a las 16 UTC al 23 a las 18 UTC
Viento 6 kt del sur-sureste

TAF: LEMH 222000Z 2221/2321 22006KT 9999 FEW020 TX23/2312Z TN15/2306Z PROB30 TEMPO 2300/2307 3000 BR SCT008 BECMG 2316/2318 16006KT

Observaciones y pronósticos meteorológicos de más de 4000 aeropuertos (mensajes METAR y TAF).

Los puntos amarillos y rojos representan las estaciones disponibles.

Ponga el ratón en el punto deseado para ver el nombre de la estación.

Haga clic para ver las observaciones y los pronósticos meteorológicos.

Para cambiar el mapa : haga clic en los botones verdes con una cruz de color negro para hacer un zoom, en el botón verde con un guión para alejar o en las flechas verdes para mapas adyacentes.


METAR-TAF: